Terminal Aerodrome Forecast
Issued by NWS Wakefield, VA

Home | Current Version | Previous Version | Text Only | Print | Product List | Glossary On
Versions: 1 2 3 4 5 6 7 8 9 10 11 12 13 14 15 16 17 18 19 20 21
000
FTUS41 KAKQ 262200 AAB
TAFRIC
TAF AMD
KRIC 262204Z 2622/2718 36010G18KT 4SM BR OVC005
     FM270300 35012G20KT 2SM -SN BR OVC005
     FM270900 34010KT 4SM BR OVC015
     FM271300 33010KT P6SM OVC025=

USA.gov is the U.S. government's official web portal to all federal, state and local government web resources and services.